2OA5 weather

Fl-Airfield
Marysville, Ohio, United States

Public forecast

Using degrees Fahrenheit for public forecast. Weather courtesy of forecast.io.

Closest aviation weather report (METAR) to Fl-Airfield

Closest report is Union County Airport, 2.5 nm (4.7 km) N. Retrieved 2020/05/26 20:19 UTC (0 seconds ago):

KMRT 262019Z AUTO 14006KT 10SM SCT055 SCT070 32/14 A3004 RMK AO1

Closest aviation forecast (TAF) to Fl-Airfield

Closest forecast is John Glenn Columbus International Airport, 23.8 nm (44.1 km) ESE. Retrieved 2020/05/26 18:27 UTC (2 hours ago):

TAF KCMH 261723Z 2618/2718 14005KT P6SM FEW040 FEW250 FM270500 14004KT P6SM SCT040 BKN250 FM271000 14004KT P6SM FEW040 BKN120 FM271400 15006KT P6SM SCT040 SCT100